Oil Finn — OJ9326 — position and weather

sailwx.info

Track history (hours):
 
Tides and Currents Weather Stations Pressure Air Temp Water Temp Dewpoint Dewpoint Depression Visibility Wind Speed Wind Dir Waves Ship Positions

Oil Finn

Last reported at 2016-Aug-26 11:24 UTC. Time now 2016-Sep-30 18:38 UTC.
Position N 60°12' E 025°20'.
Warning: this ship's position is 35 days out of date.

Length 20 m; draft 2 m.

Type: Tanker. MMSI: 230033790.

Date/timePositionNaut miles runAvg speedWind from/ knotsBaromVisibWave heightAir tempDewpointWater temp
2016-Aug-26 11:24N 60°12' E 025°20'20 6.1
2016-Aug-26 08:04N 60°15' E 026°00'4 6.3
2016-Aug-26 07:31N 60°16' E 026°07'6 6.3
2016-Aug-26 06:33N 60°17' E 026°19'4 0.3
2016-Aug-25 15:33N 60°17' E 026°28'4 3.9
2016-Aug-25 14:33N 60°19' E 026°35'3 3.4
2016-Aug-25 13:33N 60°20' E 026°41'3 2.6
2016-Aug-25 12:33N 60°21' E 026°47'5 4.6
2016-Aug-25 11:33N 60°20' E 026°56'6 5.4
2016-Aug-25 10:31N 60°18' E 027°07'2 0.6
2016-Aug-25 07:33N 60°18' E 027°10'6 6.3
2016-Aug-25 06:33N 60°19' E 026°58'12 6.2
2016-Aug-25 04:33N 60°19' E 026°33'4 0.2
2016-Aug-24 12:04N 60°17' E 026°27'3 4.6
2016-Aug-24 11:31N 60°18' E 026°22'7 5.9
2016-Aug-24 10:24N 60°16' E 026°09'  
Track history (hours):
 
Tides and Currents Weather Stations Pressure Air Temp Water Temp Dewpoint Dewpoint Depression Visibility Wind Speed Wind Dir Waves Ship Positions

Oil Finn

Last reported at 2016-Aug-26 11:24 UTC. Time now 2016-Sep-30 18:38 UTC.
Position N 60°12' E 025°20'.
Warning: this ship's position is 35 days out of date.

Length 20 m; draft 2 m.

Type: Tanker. MMSI: 230033790.

Date/timePositionNaut miles runAvg speedWind from/ knotsBaromVisibWave heightAir tempDewpointWater temp
2016-Aug-26 11:24N 60°12' E 025°20'20 6.1
2016-Aug-26 08:04N 60°15' E 026°00'4 6.3
2016-Aug-26 07:31N 60°16' E 026°07'6 6.3
2016-Aug-26 06:33N 60°17' E 026°19'4 0.3
2016-Aug-25 15:33N 60°17' E 026°28'4 3.9
2016-Aug-25 14:33N 60°19' E 026°35'3 3.4
2016-Aug-25 13:33N 60°20' E 026°41'3 2.6
2016-Aug-25 12:33N 60°21' E 026°47'5 4.6
2016-Aug-25 11:33N 60°20' E 026°56'6 5.4
2016-Aug-25 10:31N 60°18' E 027°07'2 0.6
2016-Aug-25 07:33N 60°18' E 027°10'6 6.3
2016-Aug-25 06:33N 60°19' E 026°58'12 6.2
2016-Aug-25 04:33N 60°19' E 026°33'4 0.2
2016-Aug-24 12:04N 60°17' E 026°27'3 4.6
2016-Aug-24 11:31N 60°18' E 026°22'7 5.9
2016-Aug-24 10:24N 60°16' E 026°09'  

Dump ship's entire track history